Terminal Aerodrome Forecast
Issued by NWS

Home | Current Version | Previous Version | Text Only | Print | Product List | Glossary Off
Versions: 1 2 3 4 5 6 7 8 9 10 11 12 13 14 15 16 17 18 19 20

432
FTUS42 KMHX 161135
TAFISO
TAF
KISO 161135Z 1612/1712 23013G22KT P6SM FEW025 SCT250
      TEMPO 1612/1614 BKN020
     FM162100 24015G23KT P6SM SCT050 BKN090
     FM162300 32011KT P6SM VCSH BKN050
     FM170500 02009KT P6SM OVC050
      AMD LTD TO CLD VIS AND WIND=

USA.gov is the U.S. government's official web portal to all federal, state and local government web resources and services.